createdAt,value
2018-03-31T00:02:23.520Z,99.90
2018-03-31T00:04:49.785Z,99.90
2018-03-31T00:07:16.069Z,99.90
2018-03-31T00:09:42.313Z,99.90
2018-03-31T00:12:08.574Z,99.90
2018-03-31T00:14:34.797Z,99.90
2018-03-31T00:17:01.024Z,99.90
2018-03-31T00:19:27.249Z,99.90
2018-03-31T00:21:53.481Z,99.90
2018-03-31T00:24:19.717Z,99.90
2018-03-31T00:26:45.974Z,99.90
2018-03-31T00:29:12.210Z,99.90
2018-03-31T00:31:39.201Z,99.90
2018-03-31T00:34:05.468Z,99.90
2018-03-31T00:36:31.700Z,99.90
2018-03-31T00:38:57.932Z,99.90
2018-03-31T00:41:24.194Z,99.90
2018-03-31T00:43:51.187Z,99.90
2018-03-31T00:46:17.449Z,99.90
2018-03-31T00:48:43.679Z,99.90
2018-03-31T00:51:09.922Z,99.90
2018-03-31T00:53:36.126Z,99.90
2018-03-31T00:56:02.393Z,99.90
2018-03-31T00:58:29.357Z,99.90
2018-03-31T01:00:55.605Z,99.90
2018-03-31T01:03:21.816Z,99.90
2018-03-31T01:05:48.069Z,99.90
2018-03-31T01:08:14.290Z,99.90
2018-03-31T01:10:40.534Z,99.90
2018-03-31T01:13:06.782Z,99.90
2018-03-31T01:15:33.018Z,99.90
2018-03-31T01:18:00.115Z,99.90
2018-03-31T01:20:26.546Z,99.90
2018-03-31T01:22:52.862Z,99.90
2018-03-31T01:25:19.261Z,99.90
2018-03-31T01:27:46.336Z,99.90
2018-03-31T01:30:13.453Z,99.90
2018-03-31T01:32:39.758Z,99.90
2018-03-31T01:35:06.349Z,99.90
2018-03-31T01:37:33.850Z,99.90
2018-03-31T01:40:00.162Z,99.90
2018-03-31T01:42:26.495Z,99.90
2018-03-31T01:44:52.821Z,99.90
2018-03-31T01:47:19.128Z,99.90
2018-03-31T01:49:45.502Z,99.90
2018-03-31T01:52:11.819Z,99.90
2018-03-31T01:54:38.202Z,99.90
2018-03-31T01:57:04.509Z,99.90
2018-03-31T01:59:30.826Z,99.90
2018-03-31T02:01:57.300Z,99.90
2018-03-31T02:04:23.611Z,99.90
2018-03-31T02:06:49.980Z,99.90
2018-03-31T02:09:16.320Z,99.90
2018-03-31T02:11:43.373Z,99.90
2018-03-31T02:14:09.733Z,99.90
2018-03-31T02:16:36.063Z,99.90
2018-03-31T02:19:02.410Z,99.90
2018-03-31T02:21:28.755Z,99.90
2018-03-31T02:23:55.113Z,99.90
2018-03-31T02:26:22.184Z,99.90
2018-03-31T02:28:48.583Z,99.90
2018-03-31T02:31:15.023Z,99.90
2018-03-31T02:33:42.174Z,99.90
2018-03-31T02:36:08.533Z,99.90
2018-03-31T02:38:35.584Z,99.90
2018-03-31T02:41:03.042Z,99.90
2018-03-31T02:43:29.351Z,99.90
2018-03-31T02:45:56.451Z,99.90
2018-03-31T02:48:22.795Z,99.90
2018-03-31T02:50:49.119Z,99.90
2018-03-31T02:53:15.454Z,99.90
2018-03-31T02:55:41.774Z,99.90
2018-03-31T02:58:08.112Z,99.90
2018-03-31T03:00:34.465Z,99.90
2018-03-31T03:03:00.885Z,99.90
2018-03-31T03:05:27.278Z,99.90
2018-03-31T03:07:53.579Z,99.90
2018-03-31T03:10:19.922Z,99.90
2018-03-31T03:12:46.979Z,99.90
2018-03-31T03:15:14.063Z,99.90
2018-03-31T03:17:40.398Z,99.90
2018-03-31T03:20:06.741Z,99.90
2018-03-31T03:22:33.170Z,99.90
2018-03-31T03:24:59.475Z,99.90
2018-03-31T03:27:25.947Z,99.90
2018-03-31T03:29:52.278Z,99.90
2018-03-31T03:32:18.656Z,99.90
2018-03-31T03:34:45.699Z,99.90
2018-03-31T03:37:12.751Z,99.90
2018-03-31T03:39:39.103Z,99.90
2018-03-31T03:42:05.424Z,99.90
2018-03-31T03:44:31.765Z,99.90
2018-03-31T03:46:58.140Z,99.90
2018-03-31T03:49:24.703Z,99.90
2018-03-31T03:51:52.533Z,99.90
2018-03-31T03:54:18.854Z,99.90
2018-03-31T03:56:45.210Z,99.90
2018-03-31T03:59:11.516Z,99.90
2018-03-31T04:01:37.839Z,99.90
2018-03-31T04:04:04.175Z,99.90
2018-03-31T04:06:30.666Z,99.90
2018-03-31T04:08:56.997Z,99.90
2018-03-31T04:11:24.090Z,99.90
2018-03-31T04:13:50.427Z,99.90
2018-03-31T04:16:16.818Z,99.90
2018-03-31T04:18:43.928Z,99.90
2018-03-31T04:21:11.000Z,99.90
2018-03-31T04:23:37.315Z,99.90
2018-03-31T04:26:04.461Z,99.90
2018-03-31T04:28:30.788Z,99.90
2018-03-31T04:30:57.130Z,99.90
2018-03-31T04:33:23.460Z,99.90
2018-03-31T04:35:49.752Z,99.90
2018-03-31T04:38:16.108Z,99.90
2018-03-31T04:40:42.448Z,99.90
2018-03-31T04:43:08.764Z,99.90
2018-03-31T04:45:35.212Z,99.90
2018-03-31T04:48:01.529Z,99.90
2018-03-31T04:50:27.915Z,99.90
2018-03-31T04:52:55.020Z,99.90
2018-03-31T04:55:21.387Z,99.90
2018-03-31T04:57:47.750Z,99.90
2018-03-31T05:00:14.229Z,99.90
2018-03-31T05:02:40.603Z,99.90
2018-03-31T05:05:08.752Z,99.90
2018-03-31T05:07:35.099Z,99.90
2018-03-31T05:10:01.468Z,99.90
2018-03-31T05:12:27.853Z,99.90
2018-03-31T05:14:54.166Z,99.90
2018-03-31T05:17:20.531Z,99.90
2018-03-31T05:19:47.619Z,99.90
2018-03-31T05:22:13.959Z,99.90
2018-03-31T05:24:40.284Z,99.90
2018-03-31T05:27:23.352Z,99.90
2018-03-31T05:29:49.898Z,99.90
2018-03-31T05:32:16.299Z,99.90
2018-03-31T05:34:42.646Z,99.90
2018-03-31T05:37:09.090Z,99.90
2018-03-31T05:39:35.617Z,99.90
2018-03-31T05:42:01.952Z,99.90
2018-03-31T05:44:28.361Z,99.90
2018-03-31T05:46:54.706Z,99.90
2018-03-31T05:49:21.031Z,99.90
2018-03-31T05:51:47.370Z,99.90
2018-03-31T05:54:13.668Z,99.90
2018-03-31T05:56:40.742Z,99.90
2018-03-31T05:59:07.087Z,99.90
2018-03-31T06:01:37.441Z,99.90
2018-03-31T06:04:03.796Z,99.90
2018-03-31T06:06:30.857Z,99.90
2018-03-31T06:08:57.310Z,99.90
2018-03-31T06:11:23.627Z,99.90
2018-03-31T06:13:49.959Z,99.90
2018-03-31T06:16:16.355Z,99.90
2018-03-31T06:18:43.439Z,99.90
2018-03-31T06:21:09.807Z,99.90
2018-03-31T06:23:36.336Z,99.90
2018-03-31T06:26:02.768Z,99.90
2018-03-31T06:28:29.101Z,99.90
2018-03-31T06:30:55.550Z,99.90
2018-03-31T06:33:22.008Z,99.90
2018-03-31T06:35:48.349Z,99.90
2018-03-31T06:38:14.656Z,99.90
2018-03-31T06:40:40.996Z,99.90
2018-03-31T06:43:07.331Z,99.90
2018-03-31T06:45:33.678Z,99.90
2018-03-31T06:48:00.934Z,99.90
2018-03-31T06:50:27.282Z,99.90
2018-03-31T06:52:53.607Z,99.90
2018-03-31T06:55:20.688Z,99.90
2018-03-31T06:57:51.056Z,99.90
2018-03-31T07:00:17.515Z,99.90
2018-03-31T07:02:43.864Z,99.90
2018-03-31T07:05:10.213Z,99.90
2018-03-31T07:07:36.567Z,99.90
2018-03-31T07:10:03.671Z,99.50
2018-03-31T07:12:30.019Z,99.50
2018-03-31T07:14:56.346Z,99.00
2018-03-31T07:17:22.738Z,99.00
2018-03-31T07:19:49.119Z,99.10
2018-03-31T07:22:15.517Z,99.00
2018-03-31T07:24:42.598Z,99.10
2018-03-31T07:27:08.923Z,99.10
2018-03-31T07:29:35.262Z,98.70
2018-03-31T07:32:01.892Z,99.00
2018-03-31T07:34:28.257Z,98.80
2018-03-31T07:36:54.604Z,98.40
2018-03-31T07:39:21.057Z,98.70
2018-03-31T07:41:51.830Z,98.30
2018-03-31T07:44:18.392Z,98.40
2018-03-31T07:46:44.862Z,98.00
2018-03-31T07:49:11.509Z,98.00
2018-03-31T07:51:43.052Z,97.70
2018-03-31T07:54:10.119Z,97.00
2018-03-31T07:56:37.864Z,97.00
2018-03-31T07:59:04.946Z,96.60
2018-03-31T08:01:31.297Z,96.60
2018-03-31T08:03:57.669Z,97.10
2018-03-31T08:06:24.010Z,97.00
2018-03-31T08:08:50.364Z,97.10
2018-03-31T08:11:17.400Z,95.60
2018-03-31T08:13:44.548Z,95.40
2018-03-31T08:16:11.704Z,95.70
2018-03-31T08:18:38.859Z,94.50
2018-03-31T08:21:22.241Z,94.50
2018-03-31T08:23:50.724Z,93.50
2018-03-31T08:26:17.426Z,94.60
2018-03-31T08:28:43.904Z,94.00
2018-03-31T08:31:10.951Z,91.80
2018-03-31T08:33:37.268Z,91.90
2018-03-31T08:36:03.618Z,92.30
2018-03-31T08:38:29.939Z,92.60
2018-03-31T08:40:56.276Z,92.60
2018-03-31T08:43:22.600Z,92.80
2018-03-31T08:45:48.967Z,92.30
2018-03-31T08:48:15.414Z,92.80
2018-03-31T08:50:42.494Z,90.40
2018-03-31T08:53:08.851Z,90.30
2018-03-31T08:55:35.187Z,90.30
2018-03-31T08:58:01.553Z,90.50
2018-03-31T09:00:27.891Z,91.20
2018-03-31T09:02:54.248Z,91.70
2018-03-31T09:05:20.725Z,91.20
2018-03-31T09:07:47.045Z,91.20
2018-03-31T09:10:13.474Z,90.80
2018-03-31T09:12:39.800Z,91.20
2018-03-31T09:15:06.160Z,89.30
2018-03-31T09:17:32.622Z,85.40
2018-03-31T09:19:58.961Z,86.70
2018-03-31T09:22:26.079Z,85.50
2018-03-31T09:24:52.438Z,85.40
2018-03-31T09:27:18.931Z,87.10
2018-03-31T09:29:45.252Z,86.40
2018-03-31T09:32:11.627Z,84.70
2018-03-31T09:34:38.703Z,86.10
2018-03-31T09:37:05.755Z,86.70
2018-03-31T09:39:32.847Z,88.30
2018-03-31T09:42:03.210Z,88.30
2018-03-31T09:44:29.637Z,88.30
2018-03-31T09:46:55.959Z,88.20
2018-03-31T09:49:22.303Z,86.40
2018-03-31T09:51:48.609Z,82.30
2018-03-31T09:54:14.934Z,82.40
2018-03-31T09:56:41.303Z,83.20
2018-03-31T09:59:07.738Z,85.80
2018-03-31T10:01:34.236Z,85.90
2018-03-31T10:04:00.589Z,84.20
2018-03-31T10:06:27.041Z,77.70
2018-03-31T10:08:53.391Z,76.70
2018-03-31T10:11:19.754Z,79.00
2018-03-31T10:13:46.124Z,85.20
2018-03-31T10:16:13.351Z,72.20
2018-03-31T10:18:39.688Z,72.20
2018-03-31T10:33:05.759Z,70.00
2018-03-31T10:35:32.006Z,72.90
2018-03-31T10:37:58.955Z,72.10
2018-03-31T10:40:25.895Z,65.10
2018-03-31T10:42:52.867Z,68.20
2018-03-31T10:45:19.101Z,68.10
2018-03-31T10:47:45.342Z,66.90
2018-03-31T10:50:11.514Z,66.50
2018-03-31T10:52:37.722Z,67.30
2018-03-31T10:55:03.918Z,68.30
2018-03-31T10:57:30.136Z,67.00
2018-03-31T10:59:56.331Z,63.20
2018-03-31T11:02:22.740Z,63.90
2018-03-31T11:04:48.987Z,55.70
2018-03-31T11:07:15.207Z,58.80
2018-03-31T11:09:48.835Z,55.50
2018-03-31T11:12:15.828Z,52.30
2018-03-31T11:14:42.032Z,52.00
2018-03-31T11:17:08.289Z,56.40
2018-03-31T11:19:34.487Z,53.50
2018-03-31T11:22:00.735Z,52.60
2018-03-31T11:24:26.983Z,51.00
2018-03-31T11:26:53.293Z,50.80
2018-03-31T11:29:19.491Z,44.20
2018-03-31T11:31:46.503Z,51.70
2018-03-31T11:34:12.705Z,51.70
2018-03-31T11:36:38.950Z,48.60
2018-03-31T11:39:05.158Z,50.40
2018-03-31T11:41:31.396Z,54.00
2018-03-31T11:43:57.622Z,54.00
2018-03-31T11:46:23.847Z,53.00
2018-03-31T11:48:50.086Z,53.90
2018-03-31T11:51:16.389Z,53.10
2018-03-31T11:53:43.365Z,56.70
2018-03-31T11:56:09.594Z,56.70
2018-03-31T11:58:35.826Z,51.60
2018-03-31T12:01:02.084Z,53.00
2018-03-31T12:03:28.354Z,53.40
2018-03-31T12:05:55.322Z,55.30
2018-03-31T12:08:21.564Z,55.30
2018-03-31T12:10:47.795Z,50.20
2018-03-31T12:13:14.111Z,46.30
2018-03-31T12:15:40.335Z,48.30
2018-03-31T12:18:06.647Z,47.90
2018-03-31T12:20:33.627Z,47.10
2018-03-31T12:22:59.837Z,47.20
2018-03-31T12:25:26.072Z,48.70
2018-03-31T12:27:52.466Z,49.10
2018-03-31T12:30:19.401Z,47.90
2018-03-31T12:32:46.430Z,48.60
2018-03-31T12:35:12.598Z,48.50
2018-03-31T12:37:39.583Z,51.30
2018-03-31T12:40:05.826Z,51.20
2018-03-31T12:42:32.067Z,51.00
2018-03-31T12:44:58.262Z,50.30
2018-03-31T12:47:24.462Z,48.80
2018-03-31T12:49:50.674Z,45.90
2018-03-31T12:52:17.691Z,45.60
2018-03-31T12:54:43.969Z,45.60
2018-03-31T12:57:10.238Z,44.90
2018-03-31T12:59:36.526Z,47.30
2018-03-31T13:02:02.840Z,46.90
2018-03-31T13:04:29.876Z,47.60
2018-03-31T13:06:56.172Z,47.80
2018-03-31T13:09:22.434Z,45.20
2018-03-31T13:11:48.679Z,42.30
2018-03-31T13:14:14.956Z,42.50
2018-03-31T13:16:41.175Z,44.30
2018-03-31T13:19:07.407Z,45.00
2018-03-31T13:21:34.359Z,47.90
2018-03-31T13:24:00.590Z,47.90
2018-03-31T13:26:27.528Z,45.70
2018-03-31T13:28:58.410Z,47.70
2018-03-31T13:31:24.622Z,47.70
2018-03-31T13:33:50.840Z,46.90
2018-03-31T13:36:17.050Z,43.00
2018-03-31T13:38:44.022Z,43.10
2018-03-31T13:41:10.254Z,43.10
2018-03-31T13:43:36.486Z,36.40
2018-03-31T13:46:02.671Z,38.30
2018-03-31T13:48:28.952Z,41.40
2018-03-31T13:50:55.130Z,42.30
2018-03-31T13:53:21.379Z,42.20
2018-03-31T13:55:48.312Z,43.10
2018-03-31T13:58:15.294Z,40.00
2018-03-31T14:00:41.487Z,40.00
2018-03-31T14:03:08.444Z,45.50
2018-03-31T14:05:35.371Z,47.50
2018-03-31T14:08:01.650Z,47.60
2018-03-31T14:10:28.004Z,43.70
2018-03-31T14:12:54.239Z,40.80
2018-03-31T14:15:21.567Z,41.00
2018-03-31T14:17:47.762Z,43.90
2018-03-31T14:20:14.020Z,40.90
2018-03-31T14:22:40.210Z,39.20
2018-03-31T14:25:06.406Z,39.50
2018-03-31T14:27:32.658Z,39.70
2018-03-31T14:29:58.869Z,43.80
2018-03-31T14:32:25.063Z,41.90
2018-03-31T14:34:51.304Z,44.30
2018-03-31T14:37:17.526Z,48.90
2018-03-31T14:39:43.801Z,44.70
2018-03-31T14:42:10.782Z,47.70
2018-03-31T14:44:37.877Z,49.50
2018-03-31T14:47:04.240Z,49.50
2018-03-31T14:49:30.530Z,48.60
2018-03-31T14:51:56.820Z,49.80
2018-03-31T14:54:27.424Z,50.90
2018-03-31T14:56:58.622Z,51.90
2018-03-31T14:59:24.876Z,52.80
2018-03-31T15:01:51.162Z,53.30
2018-03-31T15:04:18.566Z,54.50
2018-03-31T15:06:45.589Z,55.90
2018-03-31T15:09:11.947Z,55.90
2018-03-31T15:11:39.651Z,55.90
2018-03-31T15:14:06.147Z,55.80
2018-03-31T15:16:33.832Z,57.50
2018-03-31T15:19:01.064Z,56.10
2018-03-31T15:21:27.266Z,56.10
2018-03-31T15:23:53.515Z,56.70
2018-03-31T15:26:19.715Z,55.80
2018-03-31T15:28:45.968Z,53.50
2018-03-31T15:31:12.199Z,52.00
2018-03-31T15:33:38.403Z,50.20
2018-03-31T15:36:04.599Z,53.60
2018-03-31T15:38:30.811Z,53.30
2018-03-31T15:40:57.018Z,52.60
2018-03-31T15:43:23.258Z,54.10
2018-03-31T15:45:49.466Z,51.80
2018-03-31T15:48:19.727Z,52.20
2018-03-31T15:50:48.343Z,54.20
2018-03-31T15:53:15.270Z,55.60
2018-03-31T15:55:42.951Z,55.00
2018-03-31T15:58:09.927Z,54.60
2018-03-31T16:00:36.142Z,54.50
2018-03-31T16:03:02.351Z,54.70
2018-03-31T16:05:29.296Z,55.20
2018-03-31T16:07:56.240Z,54.50
2018-03-31T16:10:22.531Z,54.50
2018-03-31T16:12:48.747Z,55.20
2018-03-31T16:15:14.984Z,56.10
2018-03-31T16:17:41.178Z,57.40
2018-03-31T16:20:08.149Z,58.20
2018-03-31T16:22:34.375Z,58.10
2018-03-31T16:25:00.596Z,57.00
2018-03-31T16:27:26.808Z,56.20
2018-03-31T16:29:53.040Z,56.70
2018-03-31T16:32:20.018Z,57.90
2018-03-31T16:34:46.242Z,57.90
2018-03-31T16:37:12.501Z,58.70
2018-03-31T16:39:39.539Z,59.30
2018-03-31T16:42:05.724Z,59.20
2018-03-31T16:44:31.937Z,59.40
2018-03-31T16:46:58.217Z,58.30
2018-03-31T16:49:24.357Z,58.30
2018-03-31T16:51:50.580Z,58.90
2018-03-31T16:54:16.782Z,59.80
2018-03-31T16:56:42.962Z,59.40
2018-03-31T16:59:09.187Z,59.30
2018-03-31T17:01:35.407Z,60.70
2018-03-31T17:04:01.676Z,60.40
2018-03-31T17:06:27.855Z,61.20
2018-03-31T17:08:54.064Z,59.90
2018-03-31T17:11:20.259Z,60.80
2018-03-31T17:13:47.182Z,60.80
2018-03-31T17:16:13.460Z,60.80
2018-03-31T17:18:39.727Z,61.40
2018-03-31T17:21:06.051Z,61.90
2018-03-31T17:23:32.250Z,62.00
2018-03-31T17:25:58.434Z,62.70
2018-03-31T17:28:24.719Z,63.40
2018-03-31T17:30:50.942Z,64.40
2018-03-31T17:33:17.178Z,64.80
2018-03-31T17:35:43.392Z,65.70
2018-03-31T17:38:10.373Z,65.90
2018-03-31T17:40:36.606Z,66.00
2018-03-31T17:43:02.843Z,66.00
2018-03-31T17:45:29.050Z,66.50
2018-03-31T17:47:55.219Z,66.70
2018-03-31T17:50:21.391Z,66.80
2018-03-31T17:52:47.611Z,67.20
2018-03-31T17:55:13.832Z,67.90
2018-03-31T17:57:40.162Z,68.00
2018-03-31T18:00:07.089Z,67.00
2018-03-31T18:02:34.045Z,67.00
2018-03-31T18:05:00.375Z,67.00
2018-03-31T18:07:27.316Z,66.90
2018-03-31T18:09:53.588Z,66.80
2018-03-31T18:12:19.889Z,67.00
2018-03-31T18:14:46.127Z,67.40
2018-03-31T18:17:12.332Z,67.90
2018-03-31T18:19:38.563Z,68.60
2018-03-31T18:22:05.534Z,69.20
2018-03-31T18:24:31.742Z,69.20
2018-03-31T18:26:58.724Z,70.60
2018-03-31T18:29:24.953Z,70.60
2018-03-31T18:31:51.139Z,70.50
2018-03-31T18:34:17.370Z,71.10
2018-03-31T18:36:44.343Z,71.60
2018-03-31T18:39:10.586Z,71.60
2018-03-31T18:41:36.801Z,72.20
2018-03-31T18:44:07.166Z,72.90
2018-03-31T18:46:33.351Z,74.00
2018-03-31T18:48:59.667Z,74.80
2018-03-31T18:51:26.720Z,75.70
2018-03-31T18:53:53.708Z,76.10
2018-03-31T18:56:19.925Z,75.70
2018-03-31T18:58:46.115Z,75.80
2018-03-31T19:01:13.087Z,76.60
2018-03-31T19:03:40.035Z,77.00
2018-03-31T19:06:06.267Z,77.00
2018-03-31T19:08:32.536Z,77.80
2018-03-31T19:10:58.796Z,78.60
2018-03-31T19:13:24.964Z,79.20
2018-03-31T19:15:51.238Z,79.80
2018-03-31T19:18:17.444Z,80.70
2018-03-31T19:20:43.682Z,80.60
2018-03-31T19:23:09.882Z,80.70
2018-03-31T19:25:36.214Z,80.60
2018-03-31T19:28:02.423Z,80.60
2018-03-31T19:30:35.483Z,80.60
2018-03-31T19:33:01.666Z,80.50
2018-03-31T19:35:27.870Z,80.70
2018-03-31T19:37:54.803Z,81.40
2018-03-31T19:40:21.742Z,81.90
2018-03-31T19:42:47.935Z,81.80
2018-03-31T19:45:14.168Z,82.30
2018-03-31T19:47:40.374Z,82.70
2018-03-31T19:50:06.606Z,83.20
2018-03-31T19:52:32.830Z,83.00
2018-03-31T19:54:59.017Z,83.20
2018-03-31T19:57:26.133Z,83.10
2018-03-31T19:59:52.297Z,83.00
2018-03-31T20:02:19.990Z,83.10
2018-03-31T20:04:46.203Z,83.10
2018-03-31T20:07:13.180Z,83.30
2018-03-31T20:09:39.413Z,83.10
2018-03-31T20:12:05.610Z,83.30
2018-03-31T20:14:31.831Z,83.40
2018-03-31T20:16:58.782Z,83.50
2018-03-31T20:19:25.066Z,83.50
2018-03-31T20:21:52.783Z,83.90
2018-03-31T20:24:18.995Z,83.80
2018-03-31T20:26:45.518Z,84.20
2018-03-31T20:29:13.230Z,84.60
2018-03-31T20:31:39.415Z,84.70
2018-03-31T20:34:05.635Z,85.20
2018-03-31T20:36:33.371Z,85.30
2018-03-31T20:39:00.394Z,85.50
2018-03-31T20:41:26.640Z,86.30
2018-03-31T20:43:53.336Z,85.40
2018-03-31T20:46:19.550Z,85.60
2018-03-31T20:48:45.736Z,85.40
2018-03-31T20:51:11.942Z,85.30
2018-03-31T20:53:38.913Z,86.00
2018-03-31T20:56:05.139Z,85.90
2018-03-31T20:58:31.348Z,86.30
2018-03-31T21:00:57.537Z,86.70
2018-03-31T21:03:23.759Z,87.00
2018-03-31T21:05:49.967Z,87.60
2018-03-31T21:08:16.153Z,87.90
2018-03-31T21:10:43.095Z,88.30
2018-03-31T21:13:09.292Z,88.30
2018-03-31T21:15:35.509Z,88.20
2018-03-31T21:18:01.723Z,88.70
2018-03-31T21:20:27.962Z,88.80
2018-03-31T21:22:57.979Z,89.00
2018-03-31T21:25:24.170Z,89.50
2018-03-31T21:27:50.407Z,89.50
2018-03-31T21:30:16.618Z,89.60
2018-03-31T21:32:42.878Z,89.60
2018-03-31T21:35:09.090Z,90.00
2018-03-31T21:37:35.326Z,90.00
2018-03-31T21:40:01.590Z,90.10
2018-03-31T21:42:27.783Z,90.40
2018-03-31T21:44:54.039Z,90.70
2018-03-31T21:47:20.258Z,91.00
2018-03-31T21:49:46.510Z,91.10
2018-03-31T21:52:12.721Z,91.20
2018-03-31T21:54:38.961Z,91.20
2018-03-31T21:57:05.287Z,91.20
2018-03-31T21:59:32.193Z,91.30
2018-03-31T22:01:59.124Z,91.20
2018-03-31T22:04:25.326Z,91.20
2018-03-31T22:06:51.514Z,91.10
2018-03-31T22:09:17.694Z,91.00
2018-03-31T22:11:43.903Z,91.00
2018-03-31T22:14:16.334Z,90.90
2018-03-31T22:16:42.551Z,90.70
2018-03-31T22:19:08.801Z,90.60
2018-03-31T22:21:34.996Z,90.50
2018-03-31T22:24:01.941Z,90.60
2018-03-31T22:26:28.163Z,90.30
2018-03-31T22:28:55.138Z,90.40
2018-03-31T22:31:21.355Z,90.40
2018-03-31T22:33:47.588Z,90.30
2018-03-31T22:36:13.843Z,90.40
2018-03-31T22:38:40.034Z,90.50
2018-03-31T22:41:06.978Z,90.40
2018-03-31T22:43:33.179Z,90.30
2018-03-31T22:45:59.394Z,90.30
2018-03-31T22:48:25.599Z,90.30
2018-03-31T22:50:51.807Z,90.40
2018-03-31T22:53:18.024Z,90.50
2018-03-31T22:55:44.215Z,90.70
2018-03-31T22:58:10.431Z,90.70
2018-03-31T23:00:36.801Z,90.80
2018-03-31T23:03:02.998Z,90.80
2018-03-31T23:05:29.396Z,90.80
2018-03-31T23:07:55.623Z,90.80
2018-03-31T23:10:22.611Z,90.90
2018-03-31T23:12:48.794Z,90.90
2018-03-31T23:15:15.755Z,90.80
2018-03-31T23:17:42.695Z,90.70
2018-03-31T23:20:09.679Z,90.80
2018-03-31T23:22:35.907Z,91.10
2018-03-31T23:25:02.087Z,90.70
2018-03-31T23:27:28.299Z,90.80
2018-03-31T23:29:55.251Z,91.00
2018-03-31T23:32:22.931Z,91.10
2018-03-31T23:34:49.884Z,91.10
2018-03-31T23:37:16.839Z,91.10
2018-03-31T23:39:43.015Z,91.00
2018-03-31T23:42:09.240Z,91.00
2018-03-31T23:44:35.426Z,90.90
2018-03-31T23:47:01.630Z,91.00
2018-03-31T23:49:27.838Z,91.00
2018-03-31T23:51:54.783Z,91.10
2018-03-31T23:54:20.984Z,91.00
2018-03-31T23:56:47.169Z,91.10
2018-03-31T23:59:13.378Z,91.00
